Time;durP1;ratioP1;P1;durP2;ratioP2;P2;SDS_P1;SDS_P2;PMS_P1;PMS_P2;Temp;Humidity;BMP_temperature;BMP_pressure;BME280_temperature;BME280_humidity;BME280_pressure;Samples;Min_cycle;Max_cycle;Signal;HPM_P1;HPM_P2
2023/12/13 00:00:09;;;;;;;100.07;49.03;;;;;;;;;;10285664;28;20047;-78
2023/12/13 00:05:10;;;;;;;98.47;48.27;;;;;;;;;;10286445;28;20042;-78
2023/12/13 00:10:11;;;;;;;90.67;47.03;;;;;;;;;;10297487;28;20066;-79
2023/12/13 00:15:13;;;;;;;93.87;46.03;;;;;;;;;;10294222;28;20057;-79
2023/12/13 00:20:14;;;;;;;111.43;56.20;;;;;;;;;;10294727;28;20081;-79
2023/12/13 00:25:15;;;;;;;121.00;58.03;;;;;;;;;;10294785;28;20055;-81
2023/12/13 00:30:16;;;;;;;120.87;57.97;;;;;;;;;;10293162;28;20038;-79
2023/12/13 00:35:17;;;;;;;91.97;47.27;;;;;;;;;;10292907;28;20110;-80
2023/12/13 00:40:18;;;;;;;102.73;49.70;;;;;;;;;;10293506;28;20117;-79
2023/12/13 00:45:19;;;;;;;104.00;52.33;;;;;;;;;;10301280;28;20127;-80
2023/12/13 00:50:21;;;;;;;95.63;46.60;;;;;;;;;;10297048;28;20038;-79
2023/12/13 00:55:22;;;;;;;83.37;42.47;;;;;;;;;;10300530;28;20478;-78
2023/12/13 01:00:23;;;;;;;90.83;45.27;;;;;;;;;;10292693;28;20114;-79
2023/12/13 01:05:24;;;;;;;82.93;40.53;;;;;;;;;;10275089;28;20034;-79
2023/12/13 01:10:25;;;;;;;86.80;43.40;;;;;;;;;;10297905;28;20125;-79
2023/12/13 01:15:26;;;;;;;77.37;38.70;;;;;;;;;;10296356;28;20494;-80
2023/12/13 01:20:27;;;;;;;74.70;38.70;;;;;;;;;;10291787;28;20114;-78
2023/12/13 01:25:28;;;;;;;67.37;33.87;;;;;;;;;;10291775;28;20141;-79
2023/12/13 01:30:29;;;;;;;76.40;39.90;;;;;;;;;;10291139;28;20864;-78
2023/12/13 01:35:30;;;;;;;75.10;37.30;;;;;;;;;;10291024;28;20033;-80
2023/12/13 01:40:31;;;;;;;69.00;36.53;;;;;;;;;;10295642;28;20513;-80
2023/12/13 01:45:32;;;;;;;113.93;55.30;;;;;;;;;;10290390;28;20426;-79
2023/12/13 01:50:34;;;;;;;115.13;54.10;;;;;;;;;;10302832;28;20074;-78
2023/12/13 01:55:35;;;;;;;80.20;40.43;;;;;;;;;;10301714;28;20054;-80
2023/12/13 02:00:36;;;;;;;88.87;44.47;;;;;;;;;;10289975;28;20368;-79
2023/12/13 02:05:38;;;;;;;88.73;43.73;;;;;;;;;;10290362;28;20647;-79
2023/12/13 02:10:39;;;;;;;80.67;41.63;;;;;;;;;;10290089;28;20039;-78
2023/12/13 02:15:40;;;;;;;83.63;41.47;;;;;;;;;;10289304;28;20045;-80
2023/12/13 02:20:42;;;;;;;63.57;30.10;;;;;;;;;;10288630;28;20733;-81
2023/12/13 02:25:55;;;;;;;62.83;29.43;;;;;;;;;;10289069;28;20054;-78
2023/12/13 02:31:04;;;;;;;65.07;32.10;;;;;;;;;;10288211;28;20129;-79
2023/12/13 02:36:06;;;;;;;60.67;31.93;;;;;;;;;;10288567;28;20027;-78
2023/12/13 02:41:07;;;;;;;68.97;32.10;;;;;;;;;;10289998;28;20110;-78
2023/12/13 02:46:08;;;;;;;58.63;29.40;;;;;;;;;;10298550;28;20039;-78
2023/12/13 02:51:09;;;;;;;64.73;33.13;;;;;;;;;;10288151;28;20039;-79
2023/12/13 02:56:10;;;;;;;61.97;32.83;;;;;;;;;;10288296;28;20089;-79
2023/12/13 03:01:11;;;;;;;62.47;32.47;;;;;;;;;;10288307;28;20032;-77
2023/12/13 03:06:12;;;;;;;67.93;33.53;;;;;;;;;;10289169;28;20097;-79
2023/12/13 03:11:14;;;;;;;74.23;36.37;;;;;;;;;;10294488;28;20074;-78
2023/12/13 03:16:22;;;;;;;68.27;33.87;;;;;;;;;;10274383;28;20043;-79
2023/12/13 03:21:23;;;;;;;70.47;35.27;;;;;;;;;;10296736;28;20049;-79
2023/12/13 03:26:24;;;;;;;61.03;33.00;;;;;;;;;;10291187;28;20133;-79
2023/12/13 03:31:25;;;;;;;74.90;35.10;;;;;;;;;;10286691;28;20466;-78
2023/12/13 03:36:26;;;;;;;63.43;31.10;;;;;;;;;;10289430;28;20133;-79
2023/12/13 03:41:27;;;;;;;65.47;33.10;;;;;;;;;;10291346;28;20110;-78
2023/12/13 03:46:28;;;;;;;71.17;33.87;;;;;;;;;;10289512;28;20031;-79
2023/12/13 03:51:29;;;;;;;68.97;33.63;;;;;;;;;;10288601;28;20122;-79
2023/12/13 03:56:30;;;;;;;67.87;30.70;;;;;;;;;;10286752;28;20169;-81
2023/12/13 04:01:32;;;;;;;59.27;30.40;;;;;;;;;;10285503;28;20113;-79
2023/12/13 04:06:33;;;;;;;65.23;29.83;;;;;;;;;;10286182;28;20046;-80
2023/12/13 04:11:34;;;;;;;63.30;31.17;;;;;;;;;;10294600;28;20117;-79
2023/12/13 04:16:35;;;;;;;57.53;28.30;;;;;;;;;;10287935;28;20038;-79
2023/12/13 04:21:36;;;;;;;57.43;25.47;;;;;;;;;;10285677;28;20043;-81
2023/12/13 04:26:37;;;;;;;54.00;25.50;;;;;;;;;;10274784;28;20054;-81
2023/12/13 04:31:39;;;;;;;54.17;27.70;;;;;;;;;;10286183;28;20039;-80
2023/12/13 04:36:40;;;;;;;61.03;26.70;;;;;;;;;;10290397;28;20041;-82
2023/12/13 04:41:41;;;;;;;56.83;28.13;;;;;;;;;;10306698;28;20106;-80
2023/12/13 04:46:42;;;;;;;59.53;29.03;;;;;;;;;;10299370;28;20133;-79
2023/12/13 04:51:44;;;;;;;55.73;26.50;;;;;;;;;;10285870;28;20423;-81
2023/12/13 04:56:45;;;;;;;57.80;26.40;;;;;;;;;;10291100;28;20238;-79
2023/12/13 05:01:46;;;;;;;53.23;26.43;;;;;;;;;;10293913;28;20118;-79
2023/12/13 05:06:47;;;;;;;47.53;24.37;;;;;;;;;;10294511;28;20066;-78
2023/12/13 05:11:48;;;;;;;52.17;26.13;;;;;;;;;;10295398;28;20126;-81
2023/12/13 05:16:49;;;;;;;52.53;25.73;;;;;;;;;;10285175;28;20525;-81
2023/12/13 05:21:56;;;;;;;47.60;23.57;;;;;;;;;;10290959;28;20114;-79
2023/12/13 05:26:57;;;;;;;55.30;25.57;;;;;;;;;;10291301;28;20109;-79
2023/12/13 05:31:59;;;;;;;52.03;24.63;;;;;;;;;;10291480;28;20034;-80
2023/12/13 05:37:05;;;;;;;48.97;22.23;;;;;;;;;;10290661;28;20031;-78
2023/12/13 05:42:06;;;;;;;52.42;25.73;;;;;;;;;;10291294;28;20497;-80
2023/12/13 05:47:07;;;;;;;53.40;26.57;;;;;;;;;;10291114;28;20023;-80
2023/12/13 05:52:08;;;;;;;57.93;27.77;;;;;;;;;;10290521;28;20431;-79
2023/12/13 05:57:10;;;;;;;61.10;29.67;;;;;;;;;;10290157;28;20023;-80
2023/12/13 06:02:11;;;;;;;66.47;33.77;;;;;;;;;;10289877;28;20457;-81
2023/12/13 06:07:12;;;;;;;57.37;29.13;;;;;;;;;;10288662;28;20038;-80
2023/12/13 06:12:16;;;;;;;69.60;32.67;;;;;;;;;;10289870;28;20490;-80
2023/12/13 06:17:17;;;;;;;64.20;31.97;;;;;;;;;;10289202;28;20034;-79
2023/12/13 06:22:18;;;;;;;63.80;30.10;;;;;;;;;;10289189;28;20121;-81
2023/12/13 06:27:19;;;;;;;66.47;32.20;;;;;;;;;;10288890;28;20514;-81
2023/12/13 06:32:20;;;;;;;57.07;28.83;;;;;;;;;;10289239;28;20035;-78
2023/12/13 06:37:22;;;;;;;62.60;28.10;;;;;;;;;;10288244;28;20023;-79
2023/12/13 06:42:23;;;;;;;61.10;27.20;;;;;;;;;;10288396;28;20031;-82
2023/12/13 06:47:24;;;;;;;63.00;31.57;;;;;;;;;;10289664;28;20571;-80
2023/12/13 06:52:25;;;;;;;50.93;27.17;;;;;;;;;;10287387;28;20113;-79
2023/12/13 06:57:26;;;;;;;50.67;25.33;;;;;;;;;;10288073;28;20062;-79
2023/12/13 07:02:36;;;;;;;50.67;24.73;;;;;;;;;;10287302;28;20082;-79
2023/12/13 07:07:46;;;;;;;49.53;24.37;;;;;;;;;;10287453;28;20489;-80
2023/12/13 07:12:47;;;;;;;50.67;26.87;;;;;;;;;;10287222;28;20038;-79
2023/12/13 07:17:49;;;;;;;54.70;25.77;;;;;;;;;;10287558;28;20025;-80
2023/12/13 07:22:50;;;;;;;49.57;24.60;;;;;;;;;;10274163;28;20423;-80
2023/12/13 07:27:57;;;;;;;47.67;24.33;;;;;;;;;;10286090;28;20101;-79
2023/12/13 07:32:58;;;;;;;48.70;24.90;;;;;;;;;;10269728;28;20022;-80
2023/12/13 07:38:00;;;;;;;57.63;28.77;;;;;;;;;;10286383;28;20023;-78
2023/12/13 07:43:01;;;;;;;51.17;25.97;;;;;;;;;;10286563;28;20039;-80
2023/12/13 07:48:03;;;;;;;58.77;28.53;;;;;;;;;;10286303;28;20050;-79
2023/12/13 07:53:04;;;;;;;53.97;29.23;;;;;;;;;;10268865;28;20023;-79
2023/12/13 07:58:05;;;;;;;55.07;30.40;;;;;;;;;;10286593;28;20035;-80
2023/12/13 08:03:06;;;;;;;58.83;31.40;;;;;;;;;;10286929;28;20141;-79
2023/12/13 08:08:07;;;;;;;55.50;30.73;;;;;;;;;;10285604;28;20189;-80
2023/12/13 08:13:08;;;;;;;64.87;33.77;;;;;;;;;;10285344;28;20575;-80
2023/12/13 08:18:09;;;;;;;68.00;35.67;;;;;;;;;;10285291;28;20107;-79
2023/12/13 08:23:10;;;;;;;66.93;33.50;;;;;;;;;;10286041;28;20069;-79
2023/12/13 08:28:11;;;;;;;82.80;37.73;;;;;;;;;;10284702;28;20141;-79
2023/12/13 08:33:12;;;;;;;68.03;32.37;;;;;;;;;;10276002;28;20055;-81
2023/12/13 08:38:13;;;;;;;63.13;30.63;;;;;;;;;;10293044;28;20472;-79
2023/12/13 08:43:14;;;;;;;74.30;33.43;;;;;;;;;;10276634;28;20344;-81
2023/12/13 08:48:16;;;;;;;73.90;36.93;;;;;;;;;;10292347;28;20165;-79
2023/12/13 08:53:17;;;;;;;100.90;48.50;;;;;;;;;;10293245;28;20489;-80
2023/12/13 08:58:24;;;;;;;128.03;69.27;;;;;;;;;;10292783;28;20545;-81
2023/12/13 09:03:25;;;;;;;114.37;64.27;;;;;;;;;;10292786;28;20038;-81
2023/12/13 09:08:26;;;;;;;144.90;63.13;;;;;;;;;;10292075;28;20113;-79
2023/12/13 09:13:27;;;;;;;135.03;61.80;;;;;;;;;;10292097;28;20027;-79
2023/12/13 09:18:29;;;;;;;131.47;55.53;;;;;;;;;;10292931;28;20041;-79
2023/12/13 09:23:35;;;;;;;137.53;60.60;;;;;;;;;;10293030;28;20035;-79
2023/12/13 09:28:36;;;;;;;115.20;51.27;;;;;;;;;;10291624;28;20498;-80
2023/12/13 09:33:38;;;;;;;95.67;50.10;;;;;;;;;;10290992;28;20019;-80
2023/12/13 09:38:39;;;;;;;66.93;31.20;;;;;;;;;;10290955;28;20449;-81
2023/12/13 09:43:42;;;;;;;61.43;31.40;;;;;;;;;;10291636;28;20031;-80
2023/12/13 09:48:45;;;;;;;76.60;41.00;;;;;;;;;;10290863;28;20110;-80
2023/12/13 09:53:51;;;;;;;62.93;33.27;;;;;;;;;;10290420;28;20038;-79
2023/12/13 09:58:52;;;;;;;;;;;;;;;;;;10290356;28;20105;-79
2023/12/13 10:03:53;;;;;;;70.40;36.27;;;;;;;;;;10289723;28;20325;-79
2023/12/13 10:08:54;;;;;;;62.50;33.63;;;;;;;;;;10290141;28;20038;-79
2023/12/13 10:13:56;;;;;;;93.03;50.20;;;;;;;;;;10289357;28;20081;-80
2023/12/13 10:18:57;;;;;;;113.27;50.73;;;;;;;;;;10289434;28;20053;-79
2023/12/13 10:23:58;;;;;;;71.53;37.00;;;;;;;;;;10289467;28;20035;-80
2023/12/13 10:29:00;;;;;;;77.27;37.87;;;;;;;;;;10288252;28;20069;-79
2023/12/13 10:34:01;;;;;;;77.23;38.50;;;;;;;;;;10289149;28;20539;-79
2023/12/13 10:39:05;;;;;;;54.30;31.07;;;;;;;;;;10275305;28;20058;-80
2023/12/13 10:44:07;;;;;;;55.83;29.03;;;;;;;;;;10289116;28;20027;-79
2023/12/13 10:49:10;;;;;;;57.37;31.77;;;;;;;;;;10288306;28;20680;-80
2023/12/13 10:54:12;;;;;;;97.07;60.37;;;;;;;;;;10287074;28;20026;-80
2023/12/13 10:59:14;;;;;;;133.63;99.10;;;;;;;;;;10288298;28;20022;-80
2023/12/13 11:04:16;;;;;;;74.93;42.03;;;;;;;;;;10287911;28;20039;-79
2023/12/13 11:09:30;;;;;;;84.57;41.23;;;;;;;;;;10288329;28;20042;-79
2023/12/13 11:14:33;;;;;;;73.77;41.63;;;;;;;;;;10286754;28;20034;-81
2023/12/13 11:19:34;;;;;;;59.23;34.17;;;;;;;;;;10287252;28;20113;-80
2023/12/13 11:24:41;;;;;;;50.43;29.20;;;;;;;;;;10269859;28;20137;-80
2023/12/13 11:29:47;;;;;;;47.83;26.03;;;;;;;;;;10268382;28;20403;-81
2023/12/13 11:34:48;;;;;;;51.78;29.10;;;;;;;;;;10286319;28;20105;-78
2023/12/13 11:39:49;;;;;;;44.83;25.17;;;;;;;;;;10286439;28;20121;-78
2023/12/13 11:44:50;;;;;;;51.13;28.30;;;;;;;;;;10286181;28;20034;-80
2023/12/13 11:49:51;;;;;;;64.70;36.63;;;;;;;;;;10286685;28;20037;-79
2023/12/13 11:54:52;;;;;;;84.37;43.27;;;;;;;;;;10286316;28;20118;-80
2023/12/13 11:59:55;;;;;;;71.10;39.47;;;;;;;;;;10287163;28;20471;-80
2023/12/13 12:04:56;;;;;;;49.10;28.27;;;;;;;;;;10285411;28;20109;-80
2023/12/13 12:09:57;;;;;;;60.67;34.10;;;;;;;;;;10285653;28;20074;-80
2023/12/13 12:14:59;;;;;;;61.73;34.93;;;;;;;;;;10286204;28;20018;-78
2023/12/13 12:20:02;;;;;;;56.10;31.47;;;;;;;;;;10285984;28;20035;-79
2023/12/13 12:25:05;;;;;;;57.20;32.97;;;;;;;;;;10286129;28;20026;-80
2023/12/13 12:30:06;;;;;;;47.13;27.13;;;;;;;;;;10271600;28;20059;-79
2023/12/13 12:35:08;;;;;;;61.77;35.07;;;;;;;;;;10267863;28;20050;-81
2023/12/13 12:40:09;;;;;;;60.40;34.77;;;;;;;;;;10284964;28;20138;-81
2023/12/13 12:45:10;;;;;;;68.63;35.43;;;;;;;;;;10285365;28;20110;-80
2023/12/13 12:50:11;;;;;;;65.83;36.53;;;;;;;;;;10284833;28;20118;-80
2023/12/13 12:55:12;;;;;;;60.67;32.17;;;;;;;;;;10271858;28;20447;-80
2023/12/13 13:00:14;;;;;;;57.53;28.73;;;;;;;;;;10284711;28;20081;-80
2023/12/13 13:05:22;;;;;;;47.13;24.73;;;;;;;;;;10285079;28;20085;-79
2023/12/13 13:10:23;;;;;;;43.50;24.13;;;;;;;;;;10273068;28;20049;-82
2023/12/13 13:15:24;;;;;;;44.37;24.07;;;;;;;;;;10285973;28;20058;-80
2023/12/13 13:20:25;;;;;;;45.93;24.60;;;;;;;;;;10291519;28;20041;-81
2023/12/13 13:25:26;;;;;;;55.53;27.97;;;;;;;;;;10291343;28;20042;-81
2023/12/13 13:30:27;;;;;;;54.83;26.43;;;;;;;;;;10291493;28;20047;-79
2023/12/13 13:35:29;;;;;;;49.50;26.03;;;;;;;;;;10283713;28;20128;-79
2023/12/13 13:40:30;;;;;;;52.50;26.87;;;;;;;;;;10300720;28;20037;-78
2023/12/13 13:45:31;;;;;;;55.93;27.67;;;;;;;;;;10302774;28;20063;-81
2023/12/13 13:50:32;;;;;;;52.53;26.87;;;;;;;;;;10304295;28;20102;-79
2023/12/13 13:55:33;;;;;;;49.60;25.03;;;;;;;;;;10299178;28;20049;-79
2023/12/13 14:00:34;;;;;;;48.30;24.30;;;;;;;;;;10296033;28;20039;-81
2023/12/13 14:05:35;;;;;;;45.80;24.27;;;;;;;;;;10296070;28;20134;-82
2023/12/13 14:10:36;;;;;;;43.43;23.53;;;;;;;;;;10298757;28;20074;-80
2023/12/13 14:15:37;;;;;;;39.43;21.83;;;;;;;;;;10274749;28;20042;-79
2023/12/13 14:20:38;;;;;;;43.97;22.30;;;;;;;;;;10300977;28;20513;-80
2023/12/13 14:25:39;;;;;;;43.23;21.90;;;;;;;;;;10315100;28;20113;-80
2023/12/13 14:30:40;;;;;;;43.47;22.50;;;;;;;;;;10286548;28;20169;-80
2023/12/13 14:35:42;;;;;;;47.47;24.70;;;;;;;;;;10290774;28;20030;-79
2023/12/13 14:40:46;;;;;;;51.07;24.77;;;;;;;;;;10291529;28;20428;-80
2023/12/13 14:45:48;;;;;;;44.00;21.47;;;;;;;;;;10290661;28;20026;-80
2023/12/13 14:50:49;;;;;;;47.00;23.67;;;;;;;;;;10301440;28;20057;-79
2023/12/13 14:55:50;;;;;;;41.27;23.20;;;;;;;;;;10306085;28;20030;-79
2023/12/13 15:00:51;;;;;;;43.60;23.20;;;;;;;;;;10302543;28;20030;-79
2023/12/13 15:05:52;;;;;;;41.33;21.83;;;;;;;;;;10294583;28;20030;-81
2023/12/13 15:10:54;;;;;;;41.57;21.97;;;;;;;;;;10294546;28;20125;-81
2023/12/13 15:15:55;;;;;;;33.87;17.70;;;;;;;;;;10286591;28;20026;-80
2023/12/13 15:20:56;;;;;;;37.97;20.27;;;;;;;;;;10287008;28;20035;-79
2023/12/13 15:25:57;;;;;;;38.03;20.10;;;;;;;;;;10301633;28;20035;-81
2023/12/13 15:30:58;;;;;;;43.30;21.63;;;;;;;;;;10300303;28;20057;-79
2023/12/13 15:35:59;;;;;;;42.20;22.27;;;;;;;;;;10292433;28;20034;-79
2023/12/13 15:41:00;;;;;;;34.83;18.47;;;;;;;;;;10286555;28;20031;-80
2023/12/13 15:46:01;;;;;;;40.50;20.33;;;;;;;;;;10298378;28;20046;-80
2023/12/13 15:51:03;;;;;;;35.23;19.30;;;;;;;;;;10285661;28;20487;-80
2023/12/13 15:56:04;;;;;;;37.30;19.77;;;;;;;;;;10288429;28;20113;-81
2023/12/13 16:01:06;;;;;;;34.57;18.53;;;;;;;;;;10290334;28;20052;-81
2023/12/13 16:06:07;;;;;;;37.00;20.43;;;;;;;;;;10291257;28;20490;-81
2023/12/13 16:11:08;;;;;;;36.33;20.67;;;;;;;;;;10284665;28;20122;-82
2023/12/13 16:16:09;;;;;;;38.23;20.43;;;;;;;;;;10301322;28;20041;-81
2023/12/13 16:21:10;;;;;;;37.37;18.77;;;;;;;;;;10299260;28;20694;-81
2023/12/13 16:26:11;;;;;;;35.40;20.73;;;;;;;;;;10285053;28;20110;-80
2023/12/13 16:31:12;;;;;;;45.13;24.83;;;;;;;;;;10292151;28;20035;-81
2023/12/13 16:36:13;;;;;;;45.20;24.77;;;;;;;;;;10292855;28;20121;-81
2023/12/13 16:41:14;;;;;;;36.43;21.17;;;;;;;;;;10298999;28;20031;-81
2023/12/13 16:46:17;;;;;;;39.40;23.57;;;;;;;;;;10285885;28;20153;-81
2023/12/13 16:51:20;;;;;;;39.07;21.60;;;;;;;;;;10289645;28;20044;-81
2023/12/13 16:56:21;;;;;;;45.43;26.13;;;;;;;;;;10294879;28;20860;-82
2023/12/13 17:01:22;;;;;;;45.97;25.33;;;;;;;;;;10297382;28;20065;-81
2023/12/13 17:06:23;;;;;;;45.97;25.97;;;;;;;;;;10295964;28;20541;-81
2023/12/13 17:11:31;;;;;;;62.07;35.33;;;;;;;;;;10299023;28;20133;-80
2023/12/13 17:16:32;;;;;;;58.47;33.87;;;;;;;;;;10296240;28;20043;-82
2023/12/13 17:21:40;;;;;;;74.23;43.67;;;;;;;;;;10286635;28;20031;-80
2023/12/13 17:26:42;;;;;;;71.83;36.60;;;;;;;;;;10289414;28;20063;-81
2023/12/13 17:31:43;;;;;;;70.17;37.90;;;;;;;;;;10306408;28;20081;-79
2023/12/13 17:36:44;;;;;;;59.20;32.23;;;;;;;;;;10302246;28;20456;-81
2023/12/13 17:41:45;;;;;;;60.30;32.27;;;;;;;;;;10295628;28;20129;-83
2023/12/13 17:46:48;;;;;;;63.40;33.57;;;;;;;;;;10301609;28;20197;-83
2023/12/13 17:51:49;;;;;;;81.97;46.57;;;;;;;;;;10295072;28;20078;-79
2023/12/13 17:56:51;;;;;;;52.37;29.90;;;;;;;;;;10294918;28;20027;-80
2023/12/13 18:01:52;;;;;;;57.83;31.07;;;;;;;;;;10294317;28;20058;-80
2023/12/13 18:06:53;;;;;;;98.77;53.73;;;;;;;;;;10289921;28;20459;-80
2023/12/13 18:11:54;;;;;;;91.27;50.17;;;;;;;;;;10290918;28;20054;-82
2023/12/13 18:16:55;;;;;;;104.60;55.80;;;;;;;;;;10310798;28;20110;-81
2023/12/13 18:21:56;;;;;;;98.03;53.37;;;;;;;;;;10290699;28;20463;-82
2023/12/13 18:26:57;;;;;;;101.67;52.57;;;;;;;;;;10300399;28;20058;-82
2023/12/13 18:32:02;;;;;;;98.40;46.77;;;;;;;;;;10290334;28;20054;-81
2023/12/13 18:37:04;;;;;;;103.40;51.83;;;;;;;;;;10289963;28;20116;-81
2023/12/13 18:42:06;;;;;;;115.47;52.97;;;;;;;;;;10290450;28;20404;-80
2023/12/13 18:47:07;;;;;;;122.90;55.87;;;;;;;;;;10297035;28;20034;-81
2023/12/13 18:52:08;;;;;;;107.77;50.03;;;;;;;;;;10289982;28;20086;-80
2023/12/13 18:57:09;;;;;;;136.93;59.07;;;;;;;;;;10294016;28;20030;-82
2023/12/13 19:02:10;;;;;;;126.67;57.70;;;;;;;;;;10301027;28;20450;-79
2023/12/13 19:07:11;;;;;;;117.30;56.70;;;;;;;;;;10304244;28;20478;-81
2023/12/13 19:12:12;;;;;;;110.13;53.10;;;;;;;;;;10292198;28;20610;-77
2023/12/13 19:17:13;;;;;;;112.53;51.70;;;;;;;;;;10292353;28;20103;-80
2023/12/13 19:22:15;;;;;;;97.63;47.07;;;;;;;;;;10285789;28;20647;-80
2023/12/13 19:27:16;;;;;;;106.13;53.77;;;;;;;;;;10287663;28;20576;-80
2023/12/13 19:32:17;;;;;;;96.67;48.07;;;;;;;;;;10288377;28;20047;-81
2023/12/13 19:37:18;;;;;;;128.03;60.17;;;;;;;;;;10284990;28;20041;-81
2023/12/13 19:42:19;;;;;;;184.50;73.43;;;;;;;;;;10295902;28;20121;-81
2023/12/13 19:47:20;;;;;;;145.53;64.47;;;;;;;;;;10277438;28;20621;-80
2023/12/13 19:52:21;;;;;;;188.17;75.90;;;;;;;;;;10284221;28;20122;-81
2023/12/13 19:57:22;;;;;;;124.83;53.53;;;;;;;;;;10284974;28;20038;-82
2023/12/13 20:02:30;;;;;;;171.27;70.73;;;;;;;;;;10282338;28;20030;-80
2023/12/13 20:07:32;;;;;;;164.77;69.37;;;;;;;;;;10270628;28;20089;-80
2023/12/13 20:12:33;;;;;;;151.47;59.17;;;;;;;;;;10291179;28;20042;-80
2023/12/13 20:17:34;;;;;;;168.80;65.67;;;;;;;;;;10284315;28;20076;-83
2023/12/13 20:22:35;;;;;;;199.27;74.90;;;;;;;;;;10283455;28;20039;-82
2023/12/13 20:27:50;;;;;;;150.83;63.33;;;;;;;;;;10028379;28;8107570;-81
2023/12/13 20:32:51;;;;;;;166.50;65.80;;;;;;;;;;10298289;28;20046;-80
2023/12/13 20:37:52;;;;;;;148.50;60.23;;;;;;;;;;10299005;28;20027;-80
2023/12/13 20:42:53;;;;;;;146.93;60.40;;;;;;;;;;10292822;28;20463;-82
2023/12/13 20:47:54;;;;;;;119.63;53.87;;;;;;;;;;10292124;28;20022;-81
2023/12/13 20:52:55;;;;;;;127.80;56.63;;;;;;;;;;10293739;28;20763;-81
2023/12/13 20:57:56;;;;;;;131.03;55.33;;;;;;;;;;10300588;28;20114;-80
2023/12/13 21:02:57;;;;;;;129.30;55.27;;;;;;;;;;10294176;28;20065;-80
2023/12/13 21:07:58;;;;;;;138.73;55.00;;;;;;;;;;10295658;28;20122;-81
2023/12/13 21:12:59;;;;;;;162.03;56.43;;;;;;;;;;10295757;28;20030;-82
2023/12/13 21:18:00;;;;;;;156.07;55.43;;;;;;;;;;10274814;28;20126;-83
2023/12/13 21:23:02;;;;;;;149.27;52.07;;;;;;;;;;10291367;28;20126;-81
2023/12/13 21:28:03;;;;;;;168.30;53.63;;;;;;;;;;10274977;28;20568;-80
2023/12/13 21:33:04;;;;;;;163.67;54.47;;;;;;;;;;10291390;28;20030;-81
2023/12/13 21:38:06;;;;;;;164.47;55.23;;;;;;;;;;10290128;28;20041;-81
2023/12/13 21:43:07;;;;;;;215.90;61.00;;;;;;;;;;10282288;28;20034;-82
2023/12/13 21:48:08;;;;;;;194.03;54.13;;;;;;;;;;10290657;28;20451;-79
2023/12/13 21:53:09;;;;;;;156.30;46.10;;;;;;;;;;10296141;28;20066;-81
2023/12/13 21:58:10;;;;;;;142.30;45.83;;;;;;;;;;10289879;28;20031;-79
2023/12/13 22:03:11;;;;;;;85.77;39.17;;;;;;;;;;10272469;28;20117;-82
2023/12/13 22:08:12;;;;;;;199.33;50.93;;;;;;;;;;10289018;28;20122;-80
2023/12/13 22:13:13;;;;;;;131.23;42.57;;;;;;;;;;10289276;28;20047;-82
2023/12/13 22:18:21;;;;;;;138.73;43.07;;;;;;;;;;10289186;28;20046;-82
2023/12/13 22:23:23;;;;;;;138.30;44.87;;;;;;;;;;10289910;28;20073;-81
2023/12/13 22:28:24;;;;;;;149.27;44.23;;;;;;;;;;10294823;28;20058;-81
2023/12/13 22:33:25;;;;;;;109.10;39.60;;;;;;;;;;10288639;28;20475;-81
2023/12/13 22:38:26;;;;;;;116.27;39.77;;;;;;;;;;10288508;28;20081;-82
2023/12/13 22:43:27;;;;;;;120.63;42.83;;;;;;;;;;10271556;28;20034;-81
2023/12/13 22:48:36;;;;;;;105.07;40.17;;;;;;;;;;10286604;28;20034;-79
2023/12/13 22:53:37;;;;;;;100.93;38.80;;;;;;;;;;10295414;28;20034;-80
2023/12/13 22:58:38;;;;;;;121.93;44.27;;;;;;;;;;10299105;28;20027;-82
2023/12/13 23:03:42;;;;;;;138.87;50.03;;;;;;;;;;10289327;28;20475;-80
2023/12/13 23:08:43;;;;;;;124.87;46.83;;;;;;;;;;10293649;28;20467;-80
2023/12/13 23:13:44;;;;;;;98.50;40.53;;;;;;;;;;10294724;28;20047;-82
2023/12/13 23:18:46;;;;;;;111.63;43.60;;;;;;;;;;10287797;28;20117;-79
2023/12/13 23:23:54;;;;;;;100.63;40.37;;;;;;;;;;10290394;28;20033;-81
2023/12/13 23:28:55;;;;;;;109.80;39.43;;;;;;;;;;10294277;28;20077;-82
2023/12/13 23:33:56;;;;;;;104.37;39.67;;;;;;;;;;10294740;28;20085;-80
2023/12/13 23:38:57;;;;;;;104.77;36.50;;;;;;;;;;10286693;28;20035;-79
2023/12/13 23:43:58;;;;;;;115.53;39.87;;;;;;;;;;10296275;28;20035;-79
2023/12/13 23:49:00;;;;;;;132.57;39.87;;;;;;;;;;10288423;28;20043;-81
2023/12/13 23:54:01;;;;;;;141.13;41.27;;;;;;;;;;10289090;28;20042;-80
2023/12/13 23:59:02;;;;;;;155.50;43.57;;;;;;;;;;10294719;28;20035;-82
